Time;durP1;ratioP1;P1;durP2;ratioP2;P2;SDS_P1;SDS_P2;PMS_P1;PMS_P2;Temp;Humidity;BMP_temperature;BMP_pressure;BME280_temperature;BME280_humidity;BME280_pressure;Samples;Min_cycle;Max_cycle;Signal;HPM_P1;HPM_P2
2022/04/16 00:02:03;;;;;;;2.28;1.88;;;20.90;46.70;;;;;;5135240;27;20386;-61
2022/04/16 00:04:30;;;;;;;2.08;1.85;;;20.90;46.70;;;;;;5135149;27;20027;-61
2022/04/16 00:06:56;;;;;;;2.63;2.30;;;20.90;46.80;;;;;;5117064;27;20008;-61
2022/04/16 00:09:22;;;;;;;2.88;2.20;;;20.90;46.80;;;;;;5135342;27;20027;-61
2022/04/16 00:11:49;;;;;;;2.65;2.05;;;20.90;46.80;;;;;;5135170;27;20015;-60
2022/04/16 00:14:16;;;;;;;4.03;2.45;;;20.90;46.80;;;;;;5134949;27;20532;-61
2022/04/16 00:16:44;;;;;;;3.50;2.03;;;20.90;46.80;;;;;;5134961;27;20034;-61
2022/04/16 00:19:11;;;;;;;2.13;2.00;;;20.90;46.80;;;;;;5117296;27;20023;-61
2022/04/16 00:21:37;;;;;;;2.95;2.10;;;20.90;46.70;;;;;;5135501;27;20023;-61
2022/04/16 00:24:04;;;;;;;2.53;2.33;;;20.90;46.80;;;;;;5134835;27;20031;-61
2022/04/16 00:26:30;;;;;;;2.22;2.03;;;20.90;46.70;;;;;;5135022;27;20018;-61
2022/04/16 00:28:59;;;;;;;2.70;2.22;;;20.90;46.80;;;;;;5135075;27;20034;-64
2022/04/16 00:31:28;;;;;;;2.97;2.15;;;20.80;46.70;;;;;;5134909;27;20011;-60
2022/04/16 00:33:53;;;;;;;3.58;2.10;;;20.80;46.70;;;;;;5100214;27;20016;-62
2022/04/16 00:36:20;;;;;;;2.25;2.05;;;20.80;46.70;;;;;;5134973;27;20030;-61
2022/04/16 00:38:46;;;;;;;3.15;2.20;;;20.80;46.80;;;;;;5135148;27;20095;-61
2022/04/16 00:41:13;;;;;;;2.85;2.15;;;20.80;46.70;;;;;;5134911;27;20200;-61
2022/04/16 00:43:40;;;;;;;2.28;2.08;;;20.80;46.70;;;;;;5134548;27;20023;-61
2022/04/16 00:46:05;;;;;;;2.10;1.95;;;20.80;46.80;;;;;;5134920;27;20523;-63
2022/04/16 00:48:32;;;;;;;2.25;2.00;;;20.80;46.70;;;;;;5116940;27;20031;-61
2022/04/16 00:50:59;;;;;;;2.60;2.15;;;20.80;46.60;;;;;;5135163;27;20063;-61
2022/04/16 00:53:27;;;;;;;2.13;1.92;;;20.80;46.70;;;;;;5135301;27;20021;-61
2022/04/16 00:55:54;;;;;;;2.38;1.95;;;20.80;46.70;;;;;;5138489;27;20486;-61
2022/04/16 00:58:19;;;;;;;2.33;2.10;;;20.80;46.80;;;;;;5140966;27;20141;-62
2022/04/16 01:00:46;;;;;;;2.38;2.17;;;20.80;46.80;;;;;;5137615;27;20007;-63
2022/04/16 01:03:11;;;;;;;2.28;2.08;;;20.80;46.80;;;;;;5115981;27;20469;-62
2022/04/16 01:05:38;;;;;;;2.60;2.15;;;20.80;46.80;;;;;;5134192;27;20015;-62
2022/04/16 01:08:04;;;;;;;2.55;2.00;;;20.70;46.70;;;;;;5134268;27;20098;-61
2022/04/16 01:10:31;;;;;;;2.55;2.17;;;20.70;46.80;;;;;;5134438;27;20040;-61
2022/04/16 01:13:01;;;;;;;2.45;2.22;;;20.70;46.70;;;;;;5134587;27;20086;-60
2022/04/16 01:15:29;;;;;;;2.88;2.42;;;20.70;46.70;;;;;;5134225;27;20041;-61
2022/04/16 01:17:55;;;;;;;2.95;2.10;;;20.80;46.80;;;;;;5134032;27;20031;-61
2022/04/16 01:20:22;;;;;;;2.10;1.90;;;20.70;46.80;;;;;;5134263;27;20091;-61
2022/04/16 01:22:48;;;;;;;3.00;2.13;;;20.70;46.80;;;;;;5112148;28;20502;-60
2022/04/16 01:25:15;;;;;;;4.05;2.70;;;20.70;46.80;;;;;;5113636;28;20007;-63
2022/04/16 01:27:45;;;;;;;2.20;2.00;;;20.70;46.70;;;;;;5113726;28;20036;-62
2022/04/16 01:30:12;;;;;;;2.43;2.23;;;20.70;46.60;;;;;;5113532;28;20027;-62
2022/04/16 01:32:38;;;;;;;3.55;2.50;;;20.70;46.70;;;;;;5112400;28;20485;-62
2022/04/16 01:35:07;;;;;;;2.75;2.15;;;20.70;46.70;;;;;;5095129;28;20573;-62
2022/04/16 01:37:50;;;;;;;2.53;2.33;;;20.70;46.70;;;;;;5110646;28;20107;-62
2022/04/16 01:40:17;;;;;;;2.35;2.15;;;20.70;46.70;;;;;;5112630;28;20531;-68
2022/04/16 01:42:46;;;;;;;2.75;2.22;;;20.70;46.60;;;;;;5113796;28;20114;-62
2022/04/16 01:45:16;;;;;;;2.22;2.03;;;20.70;46.70;;;;;;5113543;28;20024;-62
2022/04/16 01:47:42;;;;;;;2.88;2.08;;;20.70;46.70;;;;;;5113537;28;20046;-62
2022/04/16 01:50:10;;;;;;;2.33;2.13;;;20.70;46.60;;;;;;5113587;28;20462;-62
2022/04/16 01:52:36;;;;;;;2.92;2.30;;;20.70;46.60;;;;;;5117093;28;20500;-62
2022/04/16 01:55:03;;;;;;;2.13;1.90;;;20.60;46.60;;;;;;5124724;28;20035;-62
2022/04/16 01:57:30;;;;;;;2.20;2.00;;;20.70;46.60;;;;;;5124960;28;20127;-63
2022/04/16 01:59:56;;;;;;;2.25;2.05;;;20.60;46.50;;;;;;5101595;28;20039;-61
2022/04/16 02:02:21;;;;;;;2.85;2.40;;;20.60;46.60;;;;;;5117630;27;20095;-62
2022/04/16 02:04:47;;;;;;;3.20;2.55;;;20.60;46.60;;;;;;5116952;28;20011;-62
2022/04/16 02:07:13;;;;;;;2.38;2.17;;;20.60;46.60;;;;;;5117003;28;20073;-61
2022/04/16 02:09:39;;;;;;;2.83;2.50;;;20.60;46.60;;;;;;5116736;28;20016;-61
2022/04/16 02:12:06;;;;;;;2.75;2.47;;;20.60;46.60;;;;;;5116447;28;20018;-62
2022/04/16 02:14:32;;;;;;;2.60;2.05;;;20.60;46.60;;;;;;5116675;28;20031;-62
2022/04/16 02:16:59;;;;;;;2.50;1.92;;;20.60;46.50;;;;;;5117642;28;20030;-62
2022/04/16 02:19:26;;;;;;;2.40;2.15;;;20.60;46.50;;;;;;5117015;28;20024;-62
2022/04/16 02:21:52;;;;;;;2.22;2.03;;;20.60;46.50;;;;;;5118980;27;20046;-62
2022/04/16 02:24:18;;;;;;;2.47;2.15;;;20.60;46.60;;;;;;5103072;27;20116;-62
2022/04/16 02:26:44;;;;;;;2.60;2.05;;;20.60;46.50;;;;;;5138103;27;20481;-61
2022/04/16 02:29:12;;;;;;;2.47;2.28;;;20.60;46.50;;;;;;5137886;27;20489;-62
2022/04/16 02:31:39;;;;;;;2.55;2.30;;;20.60;46.60;;;;;;5138542;27;20015;-62
2022/04/16 02:34:07;;;;;;;2.50;2.20;;;20.60;46.60;;;;;;5138405;27;20082;-62
2022/04/16 02:36:33;;;;;;;2.67;2.47;;;20.60;46.60;;;;;;5137892;27;20023;-61
2022/04/16 02:38:59;;;;;;;2.85;2.50;;;20.50;46.60;;;;;;5137906;27;20023;-62
2022/04/16 02:41:26;;;;;;;2.33;2.13;;;20.50;46.60;;;;;;5137632;27;20015;-61
2022/04/16 02:43:55;;;;;;;2.70;2.50;;;20.50;46.50;;;;;;5137869;27;20027;-62
2022/04/16 02:49:09;;;;;;;2.85;2.58;;;20.50;46.60;;;;;;5122123;27;20546;-63
2022/04/16 02:51:35;;;;;;;2.38;2.17;;;20.50;46.50;;;;;;5137156;27;20023;-62
2022/04/16 02:54:01;;;;;;;2.55;2.33;;;20.50;46.60;;;;;;5137485;27;20027;-62
2022/04/16 02:56:33;;;;;;;3.35;2.42;;;20.50;46.60;;;;;;5137139;27;20031;-62
2022/04/16 02:59:00;;;;;;;2.17;2.00;;;20.50;46.50;;;;;;5118326;27;20042;-66
2022/04/16 03:01:27;;;;;;;2.60;2.40;;;20.50;46.50;;;;;;5137015;27;20007;-62
2022/04/16 03:03:54;;;;;;;2.83;2.60;;;20.40;46.50;;;;;;5136740;27;20020;-64
2022/04/16 03:06:20;;;;;;;2.88;2.38;;;20.40;46.40;;;;;;5135896;27;20011;-63
2022/04/16 03:08:47;;;;;;;3.22;2.10;;;20.40;46.50;;;;;;5117963;27;20019;-62
2022/04/16 03:11:13;;;;;;;2.55;2.35;;;20.40;46.60;;;;;;5136227;27;20019;-63
2022/04/16 03:13:40;;;;;;;2.67;2.30;;;20.40;46.50;;;;;;5136179;27;20051;-62
2022/04/16 03:18:52;;;;;;;3.25;2.67;;;20.40;46.40;;;;;;5136723;27;20038;-62
2022/04/16 03:21:20;;;;;;;2.95;2.65;;;20.40;46.60;;;;;;5136813;27;20019;-61
2022/04/16 03:23:47;;;;;;;2.60;2.40;;;20.40;46.40;;;;;;5136369;27;20035;-62
2022/04/16 03:26:13;;;;;;;2.50;2.30;;;20.40;46.30;;;;;;5136395;27;20106;-62
2022/04/16 03:28:41;;;;;;;2.50;2.10;;;20.40;46.40;;;;;;5100613;27;20023;-62
2022/04/16 03:31:07;;;;;;;2.67;2.30;;;20.40;46.30;;;;;;5136152;27;20024;-62
2022/04/16 03:33:34;;;;;;;3.05;2.20;;;20.40;46.40;;;;;;5117711;27;20020;-63
2022/04/16 03:36:00;;;;;;;3.70;2.78;;;20.40;46.30;;;;;;5135871;27;20034;-62
2022/04/16 03:38:26;;;;;;;3.20;2.20;;;20.40;46.30;;;;;;5135776;27;20038;-61
2022/04/16 03:40:53;;;;;;;2.88;2.40;;;20.30;46.40;;;;;;5117697;27;20008;-62
2022/04/16 03:43:26;;;;;;;2.83;2.55;;;20.30;46.30;;;;;;5136444;27;20011;-62
2022/04/16 03:45:52;;;;;;;3.58;2.50;;;20.30;46.30;;;;;;5136669;27;20035;-61
2022/04/16 03:48:18;;;;;;;2.35;2.15;;;20.30;46.30;;;;;;5137334;27;20011;-61
2022/04/16 03:50:44;;;;;;;3.03;2.60;;;20.30;46.30;;;;;;5138607;27;20023;-62
2022/04/16 03:53:11;;;;;;;3.08;2.78;;;20.30;46.20;;;;;;5140825;27;20018;-62
2022/04/16 04:01:06;;;;;;;3.30;2.50;;;20.30;46.30;;;;;;5120075;27;20378;-62
2022/04/16 04:03:32;;;;;;;2.70;2.45;;;20.30;46.30;;;;;;5103212;27;20023;-61
2022/04/16 04:05:58;;;;;;;2.50;2.30;;;20.30;46.30;;;;;;5136758;27;20015;-62
2022/04/16 04:08:25;;;;;;;3.38;2.60;;;20.20;46.30;;;;;;5118959;27;20007;-62
2022/04/16 04:10:52;;;;;;;3.28;2.40;;;20.30;46.20;;;;;;5140026;27;20019;-62
2022/04/16 04:13:18;;;;;;;2.70;2.50;;;20.30;46.40;;;;;;5138459;27;20011;-62
2022/04/16 04:15:43;;;;;;;3.30;2.20;;;20.20;46.30;;;;;;5137348;27;20023;-62
2022/04/16 04:18:09;;;;;;;3.67;2.53;;;20.30;46.40;;;;;;5136761;27;20023;-61
2022/04/16 04:20:35;;;;;;;2.70;2.50;;;20.30;46.30;;;;;;5102290;27;20111;-61
2022/04/16 04:23:04;;;;;;;2.28;2.08;;;20.30;46.30;;;;;;5118286;27;20501;-62
2022/04/16 04:25:31;;;;;;;2.80;2.35;;;20.30;46.30;;;;;;5136210;27;20068;-62
2022/04/16 04:27:57;;;;;;;3.35;2.47;;;20.30;46.30;;;;;;5135823;27;20039;-62
2022/04/16 04:30:24;;;;;;;3.17;2.53;;;20.30;46.30;;;;;;5135299;27;20474;-62
2022/04/16 04:32:50;;;;;;;2.90;2.50;;;20.30;46.20;;;;;;5116857;27;20028;-62
2022/04/16 04:35:17;;;;;;;2.60;2.40;;;20.30;46.20;;;;;;5135211;27;20019;-62
2022/04/16 04:37:45;;;;;;;3.03;2.50;;;20.30;46.20;;;;;;5134930;27;20125;-61
2022/04/16 04:40:11;;;;;;;2.55;2.35;;;20.30;46.30;;;;;;5134883;27;20008;-61
2022/04/16 04:42:37;;;;;;;2.92;2.63;;;20.30;46.20;;;;;;5134492;27;20019;-62
2022/04/16 04:45:14;;;;;;;2.92;2.50;;;20.30;46.20;;;;;;5135095;27;20083;-62
2022/04/16 04:47:39;;;;;;;5.35;2.70;;;20.30;46.30;;;;;;5116431;27;20014;-62
2022/04/16 04:50:06;;;;;;;3.17;2.30;;;20.30;46.30;;;;;;5116400;27;20016;-62
2022/04/16 04:52:32;;;;;;;3.47;2.28;;;20.20;46.30;;;;;;5134619;27;20015;-62
2022/04/16 04:54:59;;;;;;;3.00;2.63;;;20.20;46.20;;;;;;5134514;27;20090;-62
2022/04/16 04:57:25;;;;;;;3.20;2.53;;;20.30;46.30;;;;;;5134753;27;20038;-61
2022/04/16 04:59:51;;;;;;;4.43;2.72;;;20.20;46.30;;;;;;5134205;27;20462;-62
2022/04/16 05:02:17;;;;;;;2.55;2.35;;;20.20;46.30;;;;;;5134666;27;20012;-62
2022/04/16 05:04:43;;;;;;;2.58;2.38;;;20.20;46.20;;;;;;5115765;27;20023;-62
2022/04/16 05:07:10;;;;;;;2.63;2.35;;;20.20;46.30;;;;;;5134164;27;20011;-62
2022/04/16 05:09:36;;;;;;;2.63;2.38;;;20.20;46.30;;;;;;5115727;27;20015;-62
2022/04/16 05:12:03;;;;;;;3.22;2.90;;;20.30;46.30;;;;;;5135202;27;20031;-62
2022/04/16 05:14:30;;;;;;;2.70;2.50;;;20.20;46.20;;;;;;5135665;27;20045;-62
2022/04/16 05:16:56;;;;;;;3.08;2.78;;;20.30;46.30;;;;;;5135619;27;20034;-61
2022/04/16 05:19:23;;;;;;;2.78;2.58;;;20.20;46.30;;;;;;5134941;27;20022;-62
2022/04/16 05:21:49;;;;;;;3.15;2.63;;;20.20;46.20;;;;;;5134214;27;20019;-62
2022/04/16 05:24:15;;;;;;;3.63;2.70;;;20.20;46.20;;;;;;5134087;27;20011;-62
2022/04/16 05:26:41;;;;;;;2.95;2.65;;;20.20;46.20;;;;;;5115425;28;20034;-62
2022/04/16 05:29:09;;;;;;;2.72;2.30;;;20.20;46.20;;;;;;5133889;27;20019;-62
2022/04/16 05:31:34;;;;;;;2.72;2.50;;;20.20;46.30;;;;;;5115638;28;20018;-62
2022/04/16 05:34:19;;;;;;;3.00;2.70;;;20.20;46.20;;;;;;5133897;28;20023;-61
2022/04/16 05:36:48;;;;;;;3.65;2.70;;;20.20;46.10;;;;;;5134118;28;20076;-62
2022/04/16 05:39:15;;;;;;;2.83;2.55;;;20.20;46.10;;;;;;5133765;28;20059;-62
2022/04/16 05:41:42;;;;;;;2.75;2.47;;;20.20;46.10;;;;;;5133999;28;20011;-62
2022/04/16 05:44:08;;;;;;;2.63;2.33;;;20.20;46.10;;;;;;5115254;28;20057;-64
2022/04/16 05:46:35;;;;;;;2.85;2.58;;;20.20;46.60;;;;;;5134984;28;20023;-62
2022/04/16 05:49:01;;;;;;;3.10;2.85;;;20.20;46.00;;;;;;5135807;28;20035;-62
2022/04/16 05:51:27;;;;;;;3.85;2.70;;;20.20;46.20;;;;;;5117420;28;20075;-61
2022/04/16 05:53:53;;;;;;;2.85;2.42;;;20.20;46.20;;;;;;5135557;28;20066;-62
2022/04/16 05:56:19;;;;;;;2.92;2.40;;;20.20;46.10;;;;;;5100132;28;20042;-62
2022/04/16 05:58:45;;;;;;;2.72;2.50;;;20.20;46.00;;;;;;5134351;28;20027;-62
2022/04/16 06:01:11;;;;;;;3.45;2.60;;;20.20;46.00;;;;;;5133752;28;20102;-62
2022/04/16 06:03:39;;;;;;;3.45;2.88;;;20.20;46.00;;;;;;5115312;28;20015;-62
2022/04/16 06:06:08;;;;;;;3.65;2.70;;;20.20;45.90;;;;;;5133671;28;20015;-62
2022/04/16 06:08:35;;;;;;;2.72;2.53;;;20.20;46.00;;;;;;5133504;28;20008;-62
2022/04/16 06:11:03;;;;;;;3.05;2.70;;;20.20;46.10;;;;;;5133909;28;20023;-62
2022/04/16 06:13:32;;;;;;;2.63;2.38;;;20.20;46.00;;;;;;5133813;28;20023;-62
2022/04/16 06:15:59;;;;;;;3.13;2.83;;;20.20;45.90;;;;;;5133577;28;20523;-62
2022/04/16 06:18:25;;;;;;;2.88;2.50;;;20.20;46.00;;;;;;5133564;28;20052;-63
2022/04/16 06:20:51;;;;;;;3.13;2.83;;;20.20;45.90;;;;;;5114944;28;20039;-62
2022/04/16 06:23:19;;;;;;;2.70;2.50;;;20.20;45.90;;;;;;5115062;28;20028;-63
2022/04/16 06:25:45;;;;;;;2.80;2.60;;;20.20;45.80;;;;;;5133237;28;20465;-62
2022/04/16 06:28:12;;;;;;;2.72;2.50;;;20.20;45.80;;;;;;5133575;28;20023;-62
2022/04/16 06:30:37;;;;;;;3.75;2.90;;;20.20;45.90;;;;;;5115155;28;20023;-62
2022/04/16 06:33:04;;;;;;;3.17;2.88;;;20.20;45.90;;;;;;5133599;28;20487;-62
2022/04/16 06:35:30;;;;;;;2.53;2.33;;;20.20;45.90;;;;;;5115857;28;20019;-62
2022/04/16 06:37:57;;;;;;;2.60;2.40;;;20.20;45.90;;;;;;5115938;28;20107;-62
2022/04/16 06:40:25;;;;;;;3.30;2.70;;;20.20;45.90;;;;;;5135034;27;20080;-62
2022/04/16 06:42:52;;;;;;;3.00;2.70;;;20.20;45.80;;;;;;5137984;27;20031;-62
2022/04/16 06:45:18;;;;;;;3.72;2.80;;;20.20;45.80;;;;;;5137436;27;20020;-63
2022/04/16 06:47:44;;;;;;;3.40;2.80;;;20.20;45.80;;;;;;5118623;27;20465;-62
2022/04/16 06:50:10;;;;;;;3.05;2.75;;;20.30;45.70;;;;;;5137401;27;20023;-62
2022/04/16 06:52:36;;;;;;;2.90;2.60;;;20.30;45.80;;;;;;5118935;27;20069;-62
2022/04/16 06:55:03;;;;;;;3.15;2.60;;;20.30;45.60;;;;;;5136809;27;20023;-62
2022/04/16 06:57:29;;;;;;;2.90;2.60;;;20.30;45.60;;;;;;5137031;27;20076;-62
2022/04/16 06:59:56;;;;;;;3.28;2.80;;;20.30;45.60;;;;;;5136653;27;20046;-61
2022/04/16 07:02:22;;;;;;;3.05;2.72;;;20.30;45.50;;;;;;5118331;27;20107;-62
2022/04/16 07:04:48;;;;;;;2.92;2.45;;;20.30;45.50;;;;;;5136447;27;20011;-62
2022/04/16 07:07:14;;;;;;;3.10;2.70;;;20.40;45.60;;;;;;5136482;27;20027;-62
2022/04/16 07:09:42;;;;;;;3.00;2.70;;;20.30;45.50;;;;;;5136636;27;20024;-61
2022/04/16 07:12:09;;;;;;;3.00;2.80;;;20.40;45.50;;;;;;5136475;27;20113;-61
2022/04/16 07:14:35;;;;;;;3.13;2.55;;;20.40;45.50;;;;;;5136488;27;20015;-61
2022/04/16 07:17:02;;;;;;;3.20;2.83;;;20.40;45.50;;;;;;5136556;27;20030;-62
2022/04/16 07:19:31;;;;;;;2.90;2.60;;;20.40;45.40;;;;;;5136148;27;20477;-61
2022/04/16 07:21:58;;;;;;;2.83;2.53;;;20.40;45.40;;;;;;5136631;27;20031;-62
2022/04/16 07:24:25;;;;;;;5.15;3.05;;;20.40;45.40;;;;;;5119140;27;20012;-62
2022/04/16 07:26:59;;;;;;;2.75;2.50;;;20.40;45.40;;;;;;5136959;27;20018;-62
2022/04/16 07:29:26;;;;;;;3.08;2.55;;;20.40;45.40;;;;;;5118829;27;20159;-62
2022/04/16 07:31:54;;;;;;;2.85;2.60;;;20.50;45.40;;;;;;5138031;27;20485;-63
2022/04/16 07:34:20;;;;;;;3.30;3.00;;;20.40;45.40;;;;;;5138854;27;20107;-63
2022/04/16 07:36:46;;;;;;;2.80;2.60;;;20.40;45.30;;;;;;5119616;27;20473;-62
2022/04/16 07:39:11;;;;;;;3.10;2.78;;;20.40;45.30;;;;;;5118436;27;20366;-61
2022/04/16 07:41:39;;;;;;;3.95;2.75;;;20.40;45.30;;;;;;5136845;27;20091;-61
2022/04/16 07:44:06;;;;;;;4.57;2.88;;;20.40;45.30;;;;;;5140015;27;20094;-62
2022/04/16 07:46:32;;;;;;;2.78;2.58;;;20.40;45.30;;;;;;5121825;27;20035;-62
2022/04/16 07:48:58;;;;;;;3.50;3.20;;;20.40;45.30;;;;;;5139936;27;20099;-63
2022/04/16 07:51:25;;;;;;;3.22;2.92;;;20.40;45.30;;;;;;5137566;27;20094;-61
2022/04/16 07:53:55;;;;;;;3.33;3.00;;;20.40;45.30;;;;;;5137730;27;20015;-60
2022/04/16 07:56:21;;;;;;;3.15;2.58;;;20.50;45.30;;;;;;5137448;27;20011;-62
2022/04/16 07:58:48;;;;;;;3.25;2.72;;;20.40;45.30;;;;;;5136691;27;20031;-63
2022/04/16 08:01:16;;;;;;;4.57;3.28;;;20.40;45.30;;;;;;5135753;27;20477;-60
2022/04/16 08:03:42;;;;;;;4.50;3.15;;;20.40;45.30;;;;;;5135790;27;20004;-60
2022/04/16 08:06:09;;;;;;;4.35;2.90;;;20.40;45.20;;;;;;5135796;27;20026;-60
2022/04/16 08:08:36;;;;;;;3.00;2.70;;;20.40;45.20;;;;;;5135603;27;20019;-61
2022/04/16 08:11:01;;;;;;;2.92;2.72;;;20.40;45.20;;;;;;5135690;27;20018;-61
2022/04/16 08:13:28;;;;;;;3.30;3.00;;;20.40;45.20;;;;;;5117476;27;20090;-61
2022/04/16 08:15:56;;;;;;;3.65;2.80;;;20.40;45.20;;;;;;5135273;27;20060;-60
2022/04/16 08:18:22;;;;;;;3.20;2.75;;;20.40;45.20;;;;;;5135055;27;20072;-60
2022/04/16 08:20:48;;;;;;;3.42;3.13;;;20.40;45.20;;;;;;5135235;27;20007;-61
2022/04/16 08:23:15;;;;;;;3.13;2.75;;;20.40;45.20;;;;;;5135112;27;20509;-61
2022/04/16 08:28:07;;;;;;;5.05;2.80;;;20.40;45.70;;;;;;5135052;27;20020;-61
2022/04/16 08:30:33;;;;;;;3.40;3.08;;;20.40;45.20;;;;;;5116575;27;20031;-61
2022/04/16 08:32:59;;;;;;;3.00;2.70;;;20.50;45.20;;;;;;5134961;27;20590;-61
2022/04/16 08:35:26;;;;;;;3.70;3.00;;;20.50;45.20;;;;;;5134971;27;20015;-60
2022/04/16 08:37:53;;;;;;;3.90;2.95;;;20.40;45.20;;;;;;5135360;27;20076;-61
2022/04/16 08:40:19;;;;;;;3.25;2.70;;;20.40;45.10;;;;;;5135300;27;20015;-61
2022/04/16 08:42:48;;;;;;;2.90;2.63;;;20.40;45.20;;;;;;5135231;27;20023;-61
2022/04/16 08:45:14;;;;;;;4.00;2.92;;;20.40;45.30;;;;;;5135273;27;20027;-61
2022/04/16 08:47:40;;;;;;;3.88;3.00;;;20.40;45.20;;;;;;5117033;27;20014;-61
2022/04/16 08:50:10;;;;;;;4.15;2.90;;;20.40;45.10;;;;;;5117223;27;20401;-61
2022/04/16 08:52:37;;;;;;;5.13;2.90;;;20.40;45.10;;;;;;5135312;27;20007;-63
2022/04/16 08:55:04;;;;;;;3.05;2.75;;;20.40;45.10;;;;;;5134513;27;20021;-63
2022/04/16 08:57:31;;;;;;;3.33;3.03;;;20.40;45.10;;;;;;5134920;27;20056;-63
2022/04/16 08:59:58;;;;;;;3.42;3.13;;;20.40;45.10;;;;;;5134945;27;20086;-63
2022/04/16 09:02:25;;;;;;;3.63;3.08;;;20.40;45.10;;;;;;5134530;27;20094;-63
2022/04/16 09:05:01;;;;;;;4.75;3.13;;;20.40;45.10;;;;;;5099416;27;20007;-63
2022/04/16 09:07:27;;;;;;;3.40;3.05;;;20.40;45.10;;;;;;5134994;27;20019;-61
2022/04/16 09:09:55;;;;;;;3.67;2.90;;;20.40;45.00;;;;;;5135341;27;20024;-61
2022/04/16 09:12:21;;;;;;;4.47;3.83;;;20.40;45.00;;;;;;5134908;27;20430;-61
2022/04/16 09:14:47;;;;;;;3.50;3.20;;;20.40;45.00;;;;;;5134331;27;20012;-63
2022/04/16 09:17:16;;;;;;;3.70;3.00;;;20.40;45.00;;;;;;5134213;27;20095;-61
2022/04/16 09:19:43;;;;;;;3.30;2.90;;;20.40;45.00;;;;;;5134161;27;20031;-61
2022/04/16 09:22:09;;;;;;;3.28;2.97;;;20.40;45.00;;;;;;5133865;27;20011;-63
2022/04/16 09:24:48;;;;;;;3.78;3.08;;;20.40;45.10;;;;;;5134624;27;20466;-63
2022/04/16 09:27:14;;;;;;;3.15;2.85;;;20.40;45.10;;;;;;5135003;27;20071;-63
2022/04/16 09:29:40;;;;;;;3.13;2.83;;;20.40;45.00;;;;;;5134928;27;20513;-63
2022/04/16 09:32:06;;;;;;;3.17;2.85;;;20.40;45.00;;;;;;5135448;27;20015;-62
2022/04/16 09:34:35;;;;;;;3.53;3.22;;;20.50;45.00;;;;;;5134947;27;20092;-62
2022/04/16 09:37:12;;;;;;;4.05;2.95;;;20.40;45.50;;;;;;5134641;28;20075;-63
2022/04/16 09:39:40;;;;;;;4.03;2.83;;;20.40;44.90;;;;;;5134386;28;20104;-62
2022/04/16 09:42:06;;;;;;;3.53;2.70;;;20.40;44.90;;;;;;5134947;28;20008;-59
2022/04/16 09:44:33;;;;;;;3.88;3.22;;;20.40;44.90;;;;;;5135077;28;20033;-60
2022/04/16 09:46:59;;;;;;;3.55;3.00;;;20.50;44.90;;;;;;5134901;28;20038;-60
2022/04/16 09:49:25;;;;;;;3.13;2.80;;;20.50;44.80;;;;;;5116210;28;20018;-61
2022/04/16 09:51:52;;;;;;;3.20;2.80;;;20.50;44.90;;;;;;5134021;28;20012;-60
2022/04/16 09:54:18;;;;;;;4.28;2.83;;;20.40;44.80;;;;;;5134088;28;20015;-60
2022/04/16 09:56:48;;;;;;;2.97;2.60;;;20.50;44.80;;;;;;5133891;28;20022;-59
2022/04/16 09:59:15;;;;;;;3.50;2.70;;;20.40;44.80;;;;;;5136021;28;20118;-59
2022/04/16 10:01:48;;;;;;;3.00;2.67;;;20.40;44.80;;;;;;5135458;28;20038;-60
2022/04/16 10:04:17;;;;;;;2.88;2.65;;;20.50;44.80;;;;;;5134767;28;20022;-60
2022/04/16 10:06:44;;;;;;;6.25;2.90;;;20.50;44.60;;;;;;5134557;28;20094;-59
2022/04/16 10:09:26;;;;;;;3.00;2.70;;;20.50;44.80;;;;;;5135654;28;20011;-61
2022/04/16 10:15:05;;;;;;;3.05;2.72;;;20.50;44.80;;;;;;5135957;27;20122;-59
2022/04/16 10:17:42;;;;;;;3.47;2.63;;;20.40;44.70;;;;;;5119060;27;20015;-60
2022/04/16 10:20:09;;;;;;;3.13;2.67;;;20.40;44.70;;;;;;5137739;27;20023;-59
2022/04/16 10:22:35;;;;;;;3.92;2.80;;;20.40;44.60;;;;;;5138717;27;20023;-60
2022/04/16 10:25:02;;;;;;;3.33;3.03;;;20.40;44.50;;;;;;5138063;27;20011;-60
2022/04/16 10:27:28;;;;;;;3.03;2.70;;;20.40;44.60;;;;;;5138201;27;20019;-60
2022/04/16 10:29:59;;;;;;;2.72;2.50;;;20.40;44.50;;;;;;5137981;27;20086;-59
2022/04/16 10:32:27;;;;;;;4.00;3.10;;;20.40;44.50;;;;;;5137400;27;20008;-60
2022/04/16 10:35:02;;;;;;;4.30;2.53;;;20.40;44.30;;;;;;5119403;27;20090;-59
2022/04/16 10:37:28;;;;;;;4.07;2.72;;;20.40;44.40;;;;;;5137187;27;20587;-60
2022/04/16 10:39:54;;;;;;;2.58;2.38;;;20.40;44.30;;;;;;5101828;27;20051;-60
2022/04/16 10:42:30;;;;;;;3.08;2.72;;;20.40;44.20;;;;;;5137257;27;20012;-59
2022/04/16 10:45:05;;;;;;;3.45;2.45;;;20.40;44.30;;;;;;5137270;27;20018;-60
2022/04/16 10:47:37;;;;;;;3.65;2.80;;;20.40;44.20;;;;;;5137515;27;20064;-59
2022/04/16 10:50:13;;;;;;;;;;;20.50;44.20;;;;;;5137187;27;20110;-60
2022/04/16 10:52:38;;;;;;;4.25;2.63;;;20.50;44.00;;;;;;5137127;27;19978;-60
2022/04/16 10:55:05;;;;;;;2.72;2.53;;;20.50;44.10;;;;;;5118930;27;20076;-59
2022/04/16 10:57:31;;;;;;;3.72;2.40;;;20.50;44.10;;;;;;5136924;27;20012;-59
2022/04/16 10:59:57;;;;;;;2.63;2.42;;;20.50;44.10;;;;;;5101657;27;20091;-60
2022/04/16 11:02:32;;;;;;;3.95;2.90;;;20.50;44.10;;;;;;5137651;27;20012;-60
2022/04/16 11:05:11;;;;;;;3.03;2.75;;;20.50;44.10;;;;;;5119323;27;20026;-61
2022/04/16 11:07:40;;;;;;;3.67;2.58;;;20.40;44.10;;;;;;5137846;27;20047;-60
2022/04/16 11:10:10;;;;;;;2.83;2.25;;;20.50;43.90;;;;;;5136966;27;20011;-60
2022/04/16 11:12:39;;;;;;;2.67;2.47;;;20.50;44.10;;;;;;5136844;27;20060;-60
2022/04/16 11:15:09;;;;;;;2.90;2.60;;;20.50;43.90;;;;;;5136581;27;20476;-60
2022/04/16 11:17:35;;;;;;;2.83;2.58;;;20.50;43.90;;;;;;5136510;27;20010;-60
2022/04/16 11:20:05;;;;;;;2.38;2.17;;;20.50;43.90;;;;;;5118910;27;20030;-60
2022/04/16 11:22:32;;;;;;;4.97;2.55;;;20.50;43.90;;;;;;5138541;27;20122;-59
2022/04/16 11:24:58;;;;;;;3.17;2.88;;;20.50;43.70;;;;;;5119803;27;20120;-59
2022/04/16 11:36:02;;;;;;;2.60;2.20;;;20.50;44.20;;;;;;5135983;27;20542;-59
2022/04/16 11:38:30;;;;;;;2.63;2.42;;;20.50;43.70;;;;;;5136120;27;20019;-60
2022/04/16 11:40:59;;;;;;;2.80;2.42;;;20.50;43.80;;;;;;5136224;27;20008;-59
2022/04/16 11:43:25;;;;;;;2.60;2.40;;;20.50;43.70;;;;;;5117794;27;20053;-59
2022/04/16 11:45:51;;;;;;;3.85;2.45;;;20.50;43.80;;;;;;5136142;27;20064;-59
2022/04/16 11:48:17;;;;;;;2.35;2.15;;;20.50;43.70;;;;;;5136085;27;20099;-60
2022/04/16 11:50:44;;;;;;;3.00;2.35;;;20.50;43.60;;;;;;5135794;27;20411;-59
2022/04/16 11:53:13;;;;;;;2.80;2.50;;;20.50;43.60;;;;;;5117937;27;20018;-61
2022/04/16 11:55:51;;;;;;;2.90;2.60;;;20.50;43.70;;;;;;5136266;27;20015;-60
2022/04/16 11:58:17;;;;;;;2.80;2.53;;;20.50;43.30;;;;;;5135999;27;20015;-60
2022/04/16 12:00:50;;;;;;;3.08;2.53;;;20.50;43.60;;;;;;5136098;27;20485;-60
2022/04/16 12:03:17;;;;;;;2.83;2.63;;;20.50;43.50;;;;;;5135627;27;20381;-60
2022/04/16 12:05:43;;;;;;;2.47;2.28;;;20.50;43.60;;;;;;5135817;27;20038;-60
2022/04/16 12:08:10;;;;;;;2.45;2.25;;;20.50;43.60;;;;;;5135962;27;20427;-61
2022/04/16 12:10:39;;;;;;;4.03;2.40;;;20.50;43.50;;;;;;5117099;27;20011;-60
2022/04/16 12:13:12;;;;;;;2.53;2.33;;;20.50;43.40;;;;;;5135659;27;20050;-60
2022/04/16 12:15:45;;;;;;;2.35;2.15;;;20.50;43.40;;;;;;5135237;27;20019;-60
2022/04/16 12:18:19;;;;;;;3.40;2.58;;;20.50;43.40;;;;;;5135294;27;20023;-60
2022/04/16 12:20:48;;;;;;;3.28;2.88;;;20.50;43.00;;;;;;5135329;27;20015;-60
2022/04/16 12:23:23;;;;;;;3.08;2.35;;;20.50;43.00;;;;;;5135084;27;20043;-60
2022/04/16 12:25:50;;;;;;;3.08;2.78;;;20.60;43.20;;;;;;5135324;27;20043;-60
2022/04/16 12:28:15;;;;;;;2.83;2.42;;;20.50;42.80;;;;;;5134987;27;20019;-60
2022/04/16 12:30:49;;;;;;;2.40;2.10;;;20.50;43.10;;;;;;5099430;27;20389;-59
2022/04/16 12:33:15;;;;;;;4.28;2.50;;;20.60;43.40;;;;;;5135000;27;20023;-60
2022/04/16 12:35:45;;;;;;;2.65;2.42;;;20.60;43.00;;;;;;5134687;27;20485;-59
2022/04/16 12:38:15;;;;;;;3.17;2.67;;;20.60;43.10;;;;;;5133858;27;20035;-59
2022/04/16 12:40:41;;;;;;;3.25;2.50;;;20.60;43.00;;;;;;5134841;27;20027;-59
2022/04/16 12:43:07;;;;;;;2.75;2.47;;;20.60;43.00;;;;;;5134877;27;20415;-60
2022/04/16 12:45:33;;;;;;;2.80;2.20;;;20.50;42.80;;;;;;5135114;27;19999;-60
2022/04/16 12:48:00;;;;;;;2.47;2.25;;;20.50;42.80;;;;;;5099818;27;20038;-59
2022/04/16 12:50:32;;;;;;;2.90;2.58;;;20.60;43.20;;;;;;5116501;27;20012;-60
2022/04/16 12:53:01;;;;;;;3.83;2.72;;;20.50;42.70;;;;;;5135108;27;20020;-60
2022/04/16 12:55:30;;;;;;;2.70;2.50;;;20.60;42.60;;;;;;5117253;27;20067;-59
2022/04/16 12:57:57;;;;;;;2.90;2.63;;;20.60;42.90;;;;;;5134872;27;20023;-60
2022/04/16 13:00:23;;;;;;;2.97;2.67;;;20.60;42.90;;;;;;5116863;27;20087;-59
2022/04/16 13:02:49;;;;;;;2.75;2.55;;;20.60;42.70;;;;;;5134975;27;20011;-60
2022/04/16 13:05:16;;;;;;;4.85;2.72;;;20.70;42.70;;;;;;5134577;27;20026;-60
2022/04/16 13:07:42;;;;;;;3.40;2.47;;;20.70;42.80;;;;;;5115997;27;20003;-59
2022/04/16 13:10:08;;;;;;;3.65;2.70;;;20.70;42.50;;;;;;5134390;27;20541;-59
2022/04/16 13:12:34;;;;;;;3.08;2.78;;;20.70;42.10;;;;;;5134518;27;20103;-59
2022/04/16 13:15:00;;;;;;;2.85;2.65;;;20.60;42.10;;;;;;5115972;27;20023;-60